Time;durP1;ratioP1;P1;durP2;ratioP2;P2;SDS_P1;SDS_P2;PMS_P1;PMS_P2;Temp;Humidity;BMP_temperature;BMP_pressure;BME280_temperature;BME280_humidity;BME280_pressure;Samples;Min_cycle;Max_cycle;Signal;HPM_P1;HPM_P2
2022/08/12 00:44:39;;;;;;;7.40;4.88;;;14.90;99.90;;;15.83;97.65;100108.84;5043179;27;130041;-77
2022/08/12 00:47:10;;;;;;;5.22;3.97;;;14.90;99.90;;;15.82;97.45;100113.50;5046639;27;128297;-78
2022/08/12 00:49:39;;;;;;;7.03;4.20;;;14.80;99.90;;;15.81;97.30;100106.44;5044679;27;118940;-78
2022/08/12 00:52:09;;;;;;;5.53;4.10;;;14.80;99.90;;;15.78;97.32;100101.66;5046982;27;114630;-78
2022/08/12 00:54:42;;;;;;;6.95;4.80;;;14.70;99.90;;;15.73;97.93;100099.06;5044439;27;129809;-78
2022/08/12 00:57:14;;;;;;;7.20;4.60;;;14.60;99.90;;;15.70;98.17;100098.91;5044209;27;129630;-77
2022/08/12 00:59:46;;;;;;;10.07;5.22;;;14.60;99.90;;;15.65;98.01;100102.66;5044851;27;118985;-78
2022/08/12 01:02:24;;;;;;;5.72;4.45;;;14.50;99.90;;;15.60;98.81;100097.38;5044710;27;115604;-75
2022/08/12 01:13:20;;;;;;;9.27;4.43;;;14.40;99.90;;;15.25;100.00;100100.25;5046734;27;114413;-74
2022/08/12 01:15:53;;;;;;;7.57;4.75;;;14.40;99.90;;;15.24;100.00;100107.69;5045921;27;129724;-75
2022/08/12 01:18:27;;;;;;;5.80;4.47;;;14.50;99.90;;;15.21;100.00;100104.81;5043892;27;129722;-77
2022/08/12 01:21:10;;;;;;;7.05;4.70;;;14.50;99.90;;;15.23;100.00;100102.53;5046077;27;117608;-75
2022/08/12 01:24:01;;;;;;;8.52;4.50;;;14.50;99.90;;;15.20;100.00;100097.72;5043275;27;115799;-76
2022/08/12 01:26:34;;;;;;;6.90;4.30;;;14.70;99.90;;;15.26;100.00;100099.16;5043636;27;130879;-74
2022/08/12 01:29:03;;;;;;;5.45;4.13;;;14.90;99.90;;;15.27;100.00;100100.75;5042529;27;129582;-76
2022/08/12 01:31:32;;;;;;;7.03;3.97;;;15.00;99.90;;;15.28;100.00;100097.66;5046000;27;119543;-75
2022/08/12 01:34:05;;;;;;;5.85;4.13;;;15.00;99.90;;;15.22;100.00;100095.44;5044594;27;115193;-75
2022/08/12 01:36:40;;;;;;;6.70;3.88;;;15.00;99.90;;;15.24;100.00;100098.69;5045350;27;129645;-73
2022/08/12 01:39:10;;;;;;;8.18;4.20;;;15.10;99.90;;;15.25;100.00;100094.78;5045971;27;128345;-74
2022/08/12 01:41:48;;;;;;;5.90;3.97;;;15.10;99.90;;;15.30;100.00;100093.81;5045912;27;117877;-76
2022/08/12 01:44:16;;;;;;;5.97;3.85;;;15.10;99.90;;;15.37;100.00;100092.16;5042659;27;114795;-77
2022/08/12 01:47:04;;;;;;;6.10;4.28;;;15.20;99.90;;;15.40;100.00;100088.00;5045068;27;129645;-77
2022/08/12 01:50:04;;;;;;;5.57;3.85;;;15.20;99.90;;;15.43;100.00;100088.13;5028798;27;128630;-76
2022/08/12 01:52:48;;;;;;;4.88;3.80;;;15.10;99.90;;;15.47;100.00;100091.00;5041169;27;119092;-75
2022/08/12 01:55:22;;;;;;;9.98;4.20;;;15.00;99.90;;;15.39;100.00;100089.91;5044124;27;114638;-76
2022/08/12 01:58:11;;;;;;;6.43;4.05;;;15.00;99.90;;;15.34;100.00;100098.28;5043480;27;130041;-76
2022/08/12 02:00:50;;;;;;;8.55;4.38;;;15.00;99.90;;;15.31;100.00;100087.22;5045462;27;128373;-76
2022/08/12 02:12:48;;;;;;;7.22;4.20;;;14.80;99.90;;;15.05;100.00;100097.13;5042033;27;129266;-74
2022/08/12 02:15:31;;;;;;;6.05;4.07;;;14.80;99.90;;;15.02;100.00;100103.25;5043432;27;119667;-76
2022/08/12 02:18:13;;;;;;;6.50;4.28;;;14.70;99.90;;;15.03;100.00;100102.09;5043609;27;116654;-76
2022/08/12 02:20:55;;;;;;;7.28;4.47;;;14.70;99.90;;;14.91;100.00;100102.81;5028211;27;129919;-78
2022/08/12 02:23:26;;;;;;;8.20;4.20;;;14.60;99.90;;;14.92;100.00;100103.59;5043027;27;130060;-79
2022/08/12 02:26:01;;;;;;;6.47;4.45;;;14.60;99.90;;;14.88;100.00;100105.38;5028601;27;118932;-77
2022/08/12 02:28:32;;;;;;;7.15;4.35;;;14.60;99.90;;;14.88;100.00;100099.91;5042374;27;114926;-76
2022/08/12 02:31:07;;;;;;;5.78;4.30;;;14.60;99.90;;;14.89;100.00;100102.31;5044595;27;130359;-76
2022/08/12 02:33:37;;;;;;;6.77;4.57;;;14.50;99.90;;;14.92;100.00;100096.19;5043129;27;129409;-77
2022/08/12 02:36:07;;;;;;;6.82;4.85;;;14.60;99.90;;;14.92;100.00;100092.66;5043040;27;118891;-77
2022/08/12 02:38:37;;;;;;;8.52;4.30;;;14.60;99.90;;;14.96;100.00;100096.38;5043334;27;115354;-76
2022/08/12 02:41:10;;;;;;;6.30;4.30;;;14.60;99.90;;;15.00;100.00;100101.97;5044299;27;129528;-77
2022/08/12 02:43:45;;;;;;;6.45;4.20;;;14.60;99.90;;;15.02;100.00;100108.72;5042693;27;129333;-76
2022/08/12 02:46:21;;;;;;;7.50;4.80;;;14.60;99.90;;;15.02;100.00;100107.91;5043116;27;119073;-76
2022/08/12 02:48:55;;;;;;;6.77;4.50;;;14.70;99.90;;;15.05;100.00;100113.53;5042152;27;114988;-76
2022/08/12 02:51:29;;;;;;;6.68;4.60;;;14.70;99.90;;;15.03;100.00;100113.03;5042515;27;129884;-76
2022/08/12 02:54:02;;;;;;;5.97;4.40;;;14.70;99.90;;;15.05;100.00;100112.72;5042639;27;129950;-77
2022/08/12 02:56:31;;;;;;;6.00;3.83;;;14.70;99.90;;;15.01;100.00;100118.03;5045211;27;118504;-76
2022/08/12 02:59:02;;;;;;;7.28;4.10;;;14.60;99.90;;;15.00;100.00;100108.22;5043142;27;115021;-75
2022/08/12 03:01:34;;;;;;;7.15;4.00;;;14.60;99.90;;;14.98;100.00;100109.69;5042605;27;130222;-76
2022/08/12 03:04:07;;;;;;;5.65;4.13;;;14.60;99.90;;;15.00;100.00;100112.91;5042521;27;130094;-77
2022/08/12 03:06:42;;;;;;;5.07;3.80;;;14.70;99.90;;;14.99;100.00;100109.38;5042457;27;118602;-77
2022/08/12 03:09:14;;;;;;;5.60;4.38;;;14.70;99.90;;;15.12;100.00;100112.22;5045090;27;115901;-76
2022/08/12 03:11:50;;;;;;;7.95;4.10;;;14.70;99.90;;;15.22;100.00;100111.84;5041934;27;129948;-76
2022/08/12 03:14:21;;;;;;;10.10;4.45;;;14.80;99.90;;;15.32;100.00;100121.63;5042382;27;129701;-76
2022/08/12 03:17:08;;;;;;;5.88;3.90;;;14.80;99.90;;;15.32;100.00;100121.63;5042554;27;118665;-75
2022/08/12 03:19:38;;;;;;;6.22;4.28;;;14.80;99.90;;;15.40;100.00;100123.53;5042977;27;114762;-77
2022/08/12 03:22:13;;;;;;;5.10;3.78;;;14.90;99.90;;;15.58;100.00;100119.59;5044033;27;128899;-75
2022/08/12 03:24:44;;;;;;;6.68;4.00;;;14.90;99.90;;;15.70;100.00;100109.88;5044300;27;128312;-76
2022/08/12 03:27:14;;;;;;;6.63;3.90;;;15.00;99.90;;;15.72;99.54;100116.63;5042553;27;118979;-76
2022/08/12 03:29:46;;;;;;;5.50;3.88;;;15.00;99.90;;;15.82;98.86;100119.00;5043312;27;115071;-76
2022/08/12 03:32:18;;;;;;;5.28;3.75;;;15.00;99.90;;;15.88;98.06;100121.53;5043976;27;130177;-76
2022/08/12 03:34:50;;;;;;;7.90;4.00;;;15.10;99.90;;;15.81;98.23;100122.84;5042007;27;129931;-76
2022/08/12 03:37:20;;;;;;;5.97;4.13;;;15.10;99.90;;;15.80;98.48;100131.41;5042064;27;118996;-75
2022/08/12 03:39:49;;;;;;;5.90;3.85;;;15.10;99.90;;;15.79;98.82;100135.28;5041914;27;115150;-77
2022/08/12 03:42:31;;;;;;;7.63;4.07;;;15.10;99.90;;;15.78;98.35;100137.22;5040356;27;130691;-77
2022/08/12 04:02:06;;;;;;;6.35;3.78;;;15.60;99.90;;;16.39;94.53;100146.91;5041911;27;115409;-76
2022/08/12 04:04:36;;;;;;;7.40;4.10;;;15.70;99.90;;;16.38;94.81;100150.00;5041638;27;129718;-75
2022/08/12 04:07:07;;;;;;;5.82;3.90;;;15.70;99.90;;;16.47;94.58;100147.97;5043594;27;128956;-77
2022/08/12 04:09:40;;;;;;;6.68;3.67;;;15.80;99.90;;;16.65;93.57;100146.69;5042815;27;119909;-76
2022/08/12 04:14:57;;;;;;;7.13;4.30;;;16.10;99.90;;;17.00;90.99;100153.81;5041298;27;130607;-77
2022/08/12 04:17:27;;;;;;;7.93;3.85;;;16.20;99.90;;;17.17;90.71;100148.16;5041608;27;129344;-77
2022/08/12 04:19:58;;;;;;;5.82;3.65;;;16.40;96.90;;;17.28;88.99;100151.25;5041678;27;119030;-75
2022/08/12 04:22:29;;;;;;;7.15;3.60;;;16.50;92.50;;;17.28;88.47;100147.69;5027055;27;115344;-77
2022/08/12 04:25:00;;;;;;;6.25;3.70;;;16.50;92.50;;;17.46;88.00;100143.59;5041256;27;130125;-77
2022/08/12 04:27:30;;;;;;;6.78;3.60;;;16.60;91.10;;;17.54;87.39;100139.94;5041568;27;129511;-77
2022/08/12 04:29:58;;;;;;;7.82;3.80;;;16.70;78.80;;;17.80;86.27;100158.00;5041726;27;118984;-76
2022/08/12 04:32:28;;;;;;;6.28;3.58;;;17.00;71.00;;;17.88;84.46;100153.53;5041691;27;115162;-76
2022/08/12 04:34:59;;;;;;;5.18;3.40;;;17.00;56.90;;;18.05;84.40;100149.78;5041277;27;129571;-78
2022/08/12 04:37:27;;;;;;;6.22;3.60;;;17.20;56.10;;;18.11;83.34;100156.63;5041211;27;129292;-78
2022/08/12 04:39:57;;;;;;;6.97;3.58;;;17.20;47.70;;;18.30;81.98;100154.06;5041548;27;118807;-78
2022/08/12 04:42:25;;;;;;;6.07;3.22;;;17.30;45.70;;;18.25;83.06;100157.06;5040490;27;115066;-79
2022/08/12 04:44:54;;;;;;;5.30;3.50;;;17.30;49.80;;;18.39;82.33;100156.69;5041021;27;130256;-80
2022/08/12 04:47:23;;;;;;;6.82;3.60;;;17.40;44.50;;;18.48;82.23;100162.00;5041023;27;130276;-80
2022/08/12 04:49:51;;;;;;;7.03;4.13;;;17.40;39.30;;;18.65;81.33;100164.50;5041062;27;119591;-78
2022/08/12 04:52:22;;;;;;;8.90;4.10;;;17.60;35.10;;;18.89;80.58;100162.00;5041238;27;116098;-78
2022/08/12 04:54:52;;;;;;;4.95;3.08;;;17.80;35.30;;;18.99;79.39;100162.28;5040807;27;130680;-76
2022/08/12 04:57:20;;;;;;;6.70;3.30;;;17.80;26.80;;;19.05;78.65;100154.56;5042605;27;128883;-76
2022/08/12 04:59:49;;;;;;;6.90;3.03;;;18.00;18.90;;;19.09;78.54;100149.16;5041067;27;118832;-75
2022/08/12 05:02:19;;;;;;;4.82;2.90;;;18.00;19.00;;;19.25;79.20;100144.47;5040829;27;115287;-75
2022/08/12 05:04:51;;;;;;;8.95;3.25;;;18.30;21.00;;;19.49;76.58;100150.94;5042050;27;129100;-76
2022/08/12 05:07:22;;;;;;;4.53;2.67;;;18.40;7.30;;;19.48;74.92;100152.91;5040789;27;129463;-75
2022/08/12 05:09:51;;;;;;;4.90;3.15;;;18.50;1.00;;;19.71;74.68;100155.84;5043419;27;118923;-76
2022/08/12 05:12:22;;;;;;;5.40;2.70;;;18.70;1.00;;;19.87;73.51;100149.53;5042434;27;114874;-77
2022/08/12 05:14:50;;;;;;;4.43;2.40;;;18.80;1.00;;;19.85;72.25;100151.81;5043664;27;130142;-77
2022/08/12 05:17:19;;;;;;;4.75;2.42;;;18.80;1.00;;;19.90;72.67;100149.59;5043957;27;129258;-77
2022/08/12 05:19:47;;;;;;;4.38;2.30;;;19.00;1.00;;;20.03;72.10;100147.53;5045985;27;118580;-76
2022/08/12 05:22:16;;;;;;;4.70;2.83;;;19.10;1.00;;;20.13;71.12;100146.16;5043995;27;115245;-74
2022/08/12 05:24:46;;;;;;;6.55;2.88;;;19.20;1.00;;;20.27;71.06;100148.41;5043794;27;129787;-78
2022/08/12 05:27:16;;;;;;;4.43;2.50;;;19.40;1.00;;;20.44;69.56;100156.28;5046100;27;129046;-77
2022/08/12 05:29:48;;;;;;;4.20;2.30;;;19.50;1.00;;;20.55;68.20;100155.69;5044251;27;118818;-74
2022/08/12 05:32:19;;;;;;;4.75;2.47;;;19.60;1.00;;;20.72;67.18;100155.25;5044694;27;115260;-77
2022/08/12 05:34:48;;;;;;;3.45;1.98;;;19.80;1.00;;;20.86;66.61;100154.75;5043660;27;130381;-77
2022/08/12 05:37:17;;;;;;;4.13;2.20;;;19.90;1.00;;;20.86;65.83;100151.19;5044024;27;129026;-76
2022/08/12 05:39:47;;;;;;;10.45;2.25;;;20.00;1.00;;;21.11;64.82;100154.41;5043945;27;119460;-75
2022/08/12 05:42:17;;;;;;;4.47;2.00;;;20.10;1.00;;;21.15;64.53;100147.00;5043822;27;115501;-76
2022/08/12 05:44:45;;;;;;;5.43;1.80;;;20.30;1.00;;;21.30;63.12;100145.25;5043649;27;130039;-75
2022/08/12 05:47:13;;;;;;;5.25;1.92;;;20.40;1.00;;;21.36;63.30;100152.06;5043787;27;129799;-75
2022/08/12 05:49:42;;;;;;;4.65;2.45;;;20.50;1.00;;;21.56;62.81;100152.03;5045816;27;117826;-74
2022/08/12 05:52:11;;;;;;;3.95;1.80;;;20.70;1.00;;;21.85;61.74;100148.53;5028993;27;114836;-76
2022/08/12 05:54:43;;;;;;;5.18;2.15;;;20.90;1.00;;;21.93;60.62;100148.66;5043245;27;129913;-75
2022/08/12 05:57:13;;;;;;;4.28;1.90;;;21.00;1.00;;;22.10;58.00;100148.09;5042279;27;129362;-77
2022/08/12 05:59:42;;;;;;;4.78;1.80;;;21.10;1.00;;;22.10;57.37;100145.34;5045038;27;117601;-74
2022/08/12 06:02:10;;;;;;;4.65;2.20;;;21.20;1.00;;;22.24;56.25;100142.75;5042078;27;115109;-75
2022/08/12 06:04:40;;;;;;;2.88;1.52;;;21.30;1.00;;;22.27;55.40;100147.53;5043089;27;129932;-77
2022/08/12 06:07:12;;;;;;;2.75;1.65;;;21.50;1.00;;;22.48;54.70;100143.47;5043103;27;129363;-77
2022/08/12 06:09:41;;;;;;;2.40;1.42;;;21.60;1.00;;;22.64;54.56;100142.47;5046127;27;119068;-77
2022/08/12 06:12:10;;;;;;;5.10;1.73;;;21.60;1.00;;;22.83;55.04;100150.59;5043503;27;115062;-78
2022/08/12 06:14:40;;;;;;;2.42;1.52;;;21.70;1.00;;;22.82;54.03;100149.00;5042816;27;129912;-78
2022/08/12 06:17:08;;;;;;;7.30;1.80;;;21.80;1.00;;;22.82;53.54;100154.53;5042885;27;130091;-76
2022/08/12 06:19:37;;;;;;;5.43;1.75;;;21.80;1.00;;;22.71;52.72;100148.09;5043013;27;118566;-74
2022/08/12 06:22:06;;;;;;;5.72;1.60;;;21.80;1.00;;;23.02;53.34;100152.34;5043227;27;115117;-74
2022/08/12 06:24:34;;;;;;;3.17;1.50;;;22.00;1.00;;;23.14;52.58;100148.56;5041546;27;130449;-73
2022/08/12 06:27:03;;;;;;;3.55;1.58;;;22.10;1.00;;;23.19;52.69;100148.19;5044604;27;130192;-76
2022/08/12 06:29:33;;;;;;;5.90;1.58;;;22.00;1.00;;;23.32;52.67;100135.66;5043401;27;118729;-75
2022/08/12 06:32:03;;;;;;;2.03;1.30;;;22.20;1.00;;;23.32;51.91;100138.41;5043581;27;115810;-76
2022/08/12 06:34:34;;;;;;;2.22;1.50;;;22.20;1.00;;;23.24;52.54;100147.06;5045022;27;129083;-74
2022/08/12 06:37:03;;;;;;;5.05;1.55;;;22.20;1.00;;;23.13;52.07;100135.88;5042256;27;130022;-75
2022/08/12 06:39:32;;;;;;;3.42;1.80;;;22.10;1.00;;;22.90;52.61;100134.03;5042645;27;118902;-73
2022/08/12 06:44:46;;;;;;;3.30;1.60;;;22.10;1.00;;;23.30;51.57;100126.94;5044677;27;129052;-76
2022/08/12 06:47:20;;;;;;;4.90;1.40;;;22.30;1.00;;;23.50;51.66;100126.72;5043028;27;129421;-74
2022/08/12 06:49:50;;;;;;;3.58;1.50;;;22.50;1.00;;;23.27;51.86;100130.47;5046167;27;118613;-74
2022/08/12 06:52:21;;;;;;;2.75;1.40;;;22.30;1.00;;;23.36;51.37;100132.09;5042795;27;115291;-76
2022/08/12 06:54:52;;;;;;;4.95;1.60;;;22.40;1.00;;;23.47;51.37;100133.78;5042578;27;130540;-74
2022/08/12 06:57:21;;;;;;;2.90;1.48;;;22.50;1.00;;;23.53;51.48;100125.94;5042431;27;130100;-77
2022/08/12 06:59:49;;;;;;;4.00;1.73;;;22.50;1.00;;;23.64;50.79;100126.81;5042489;27;118730;-77
2022/08/12 07:02:21;;;;;;;2.63;1.35;;;22.70;1.00;;;23.64;50.75;100126.81;5043265;27;113850;-75
2022/08/12 07:04:51;;;;;;;4.93;1.50;;;22.60;1.00;;;23.86;50.67;100126.97;5042291;27;130013;-73
2022/08/12 07:07:20;;;;;;;3.55;1.70;;;22.90;1.00;;;24.32;49.36;100131.94;5042530;27;129825;-74
2022/08/12 07:09:49;;;;;;;3.28;1.52;;;23.10;1.00;;;24.50;49.14;100125.69;5047668;27;119226;-75
2022/08/12 07:12:18;;;;;;;4.50;1.42;;;23.40;1.00;;;24.68;48.37;100123.78;5055507;27;115261;-77
2022/08/12 07:14:50;;;;;;;4.00;1.50;;;23.50;1.00;;;24.87;47.53;100138.47;5064774;27;130174;-76
2022/08/12 07:17:19;;;;;;;2.40;1.45;;;23.60;1.00;;;24.93;46.94;100131.34;5062438;27;129859;-73
2022/08/12 07:19:48;;;;;;;4.65;1.58;;;23.70;1.00;;;24.96;47.16;100133.34;5062321;27;119122;-75
2022/08/12 07:22:17;;;;;;;2.70;1.40;;;23.70;1.00;;;24.84;46.29;100137.31;5062635;27;116003;-72
2022/08/12 07:25:29;;;;;;;4.18;1.50;;;23.60;1.00;;;24.77;46.92;100140.84;5061116;27;130412;-76
2022/08/12 07:27:39;;;;;;;7.38;1.70;;;23.50;1.00;;;24.84;47.46;100136.47;5064784;27;130886;-75
2022/08/12 07:30:10;;;;;;;3.25;1.60;;;23.60;1.00;;;25.07;46.05;100136.13;5062649;27;118941;-76
2022/08/12 07:32:40;;;;;;;2.90;1.33;;;23.80;1.00;;;25.27;46.07;100128.22;5062846;27;115188;-78
2022/08/12 07:35:09;;;;;;;5.15;1.50;;;24.00;1.00;;;25.31;46.40;100134.59;5061929;27;130115;-74
2022/08/12 07:37:41;;;;;;;3.10;1.27;;;24.10;1.00;;;25.38;46.06;100140.13;5062655;27;129929;-74
2022/08/12 07:40:12;;;;;;;3.35;1.40;;;24.20;1.00;;;24.92;46.63;100135.34;5064415;27;118736;-75
2022/08/12 07:42:42;;;;;;;3.80;1.65;;;23.70;1.00;;;24.80;46.29;100136.50;5062764;27;114783;-73
2022/08/12 07:45:12;;;;;;;2.35;1.40;;;23.60;1.00;;;24.68;47.85;100126.56;5061836;27;130496;-73
2022/08/12 07:47:42;;;;;;;2.88;1.60;;;23.60;1.00;;;24.97;46.83;100143.25;5061926;27;130157;-77
2022/08/12 07:50:13;;;;;;;5.30;1.73;;;24.00;1.00;;;25.03;46.84;100130.59;5064187;27;118997;-77
2022/08/12 07:52:45;;;;;;;3.40;1.65;;;24.00;1.00;;;25.35;46.43;100138.16;5062436;27;115175;-73
2022/08/12 07:55:16;;;;;;;4.97;1.92;;;24.30;1.00;;;25.41;46.86;100144.91;5062037;27;130700;-73
2022/08/12 07:57:56;;;;;;;6.30;1.50;;;24.30;1.00;;;25.43;46.17;100136.16;5061891;27;129589;-76
2022/08/12 08:00:27;;;;;;;4.38;1.33;;;24.30;1.00;;;25.20;46.97;100136.56;5062047;27;119194;-76
2022/08/12 08:02:57;;;;;;;3.33;1.65;;;24.10;1.00;;;25.20;47.62;100142.13;5064205;27;114527;-74
2022/08/12 08:05:32;;;;;;;3.28;1.40;;;24.10;1.00;;;25.30;46.13;100139.34;5061504;27;130322;-75
2022/08/12 08:08:02;;;;;;;2.42;1.40;;;24.10;1.00;;;25.37;47.77;100144.13;5062392;27;129589;-76
2022/08/12 08:10:33;;;;;;;7.13;1.70;;;24.30;1.00;;;25.75;46.62;100147.25;5061503;27;118746;-75
2022/08/12 08:13:03;;;;;;;3.90;1.77;;;24.70;1.00;;;25.48;46.52;100150.47;5061767;27;116513;-79
2022/08/12 08:15:34;;;;;;;2.97;1.50;;;24.30;1.00;;;25.38;46.89;100145.69;5061504;27;129938;-74
2022/08/12 08:18:07;;;;;;;3.28;1.50;;;24.20;1.00;;;25.46;47.27;100140.94;5061424;27;129646;-74
2022/08/12 08:20:39;;;;;;;2.78;1.40;;;24.40;1.00;;;25.50;47.91;100152.06;5061770;27;118800;-75
2022/08/12 08:23:12;;;;;;;6.40;1.98;;;24.40;1.00;;;25.63;46.89;100140.16;5060416;27;114963;-76
2022/08/12 08:25:40;;;;;;;3.92;1.50;;;24.50;1.00;;;25.59;47.03;100133.00;5061232;27;129966;-75
2022/08/12 08:28:13;;;;;;;4.10;1.80;;;24.40;1.00;;;25.80;46.62;100132.97;5060840;27;130350;-76
2022/08/12 08:30:45;;;;;;;3.03;1.52;;;24.60;1.00;;;26.01;47.33;100125.81;5062019;27;118797;-74
2022/08/12 08:33:16;;;;;;;2.85;1.60;;;24.80;1.00;;;26.08;45.80;100131.31;5061787;27;115361;-80
2022/08/12 08:35:47;;;;;;;3.70;1.73;;;24.90;1.00;;;26.47;46.73;100119.25;5061159;27;130096;-80
2022/08/12 08:38:18;;;;;;;7.03;2.10;;;25.00;1.00;;;26.64;45.45;100119.56;5061400;27;130060;-79
2022/08/12 08:43:33;;;;;;;3.33;1.80;;;25.20;1.00;;;26.77;45.88;100120.72;5042582;27;114434;-77
2022/08/12 08:46:04;;;;;;;4.45;1.90;;;25.30;1.00;;;26.42;45.28;100119.66;5041863;27;130065;-77
2022/08/12 08:48:34;;;;;;;4.20;1.88;;;25.00;1.00;;;26.13;45.73;100117.03;5043168;27;130061;-75
2022/08/12 08:51:04;;;;;;;5.80;1.60;;;24.90;1.00;;;26.15;45.46;100114.63;5044896;27;119132;-75
2022/08/12 08:53:34;;;;;;;4.97;2.03;;;24.80;1.00;;;26.69;46.03;100113.59;5044895;27;115063;-76
2022/08/12 08:56:03;;;;;;;4.05;1.58;;;25.20;1.00;;;26.41;45.31;100109.72;5047126;27;129650;-77
2022/08/12 08:58:31;;;;;;;3.28;1.77;;;25.00;1.00;;;26.19;45.22;100109.03;5049249;27;129473;-74
2022/08/12 09:01:00;;;;;;;4.55;2.28;;;25.10;1.00;;;26.63;45.20;100109.63;5064784;27;118809;-77
2022/08/12 09:03:29;;;;;;;4.20;1.80;;;25.30;1.00;;;26.84;44.60;100105.94;5065118;27;115935;-76
2022/08/12 09:06:00;;;;;;;4.10;1.70;;;25.40;1.00;;;26.43;45.54;100110.13;5064616;27;130256;-77
2022/08/12 09:08:28;;;;;;;4.05;1.65;;;24.90;1.00;;;26.27;45.57;100116.16;5065284;27;129437;-75
2022/08/12 09:13:26;;;;;;;4.63;1.80;;;24.90;1.00;;;26.67;45.69;100110.44;5064945;27;118726;-77
2022/08/12 09:13:44;;;;;;;3.72;1.45;;;25.40;1.00;;;26.84;44.77;100103.16;5064544;27;115193;-76
2022/08/12 09:16:13;;;;;;;3.03;1.70;;;25.50;1.00;;;26.50;44.69;100107.28;5064635;27;130116;-75
2022/08/12 09:18:42;;;;;;;3.78;1.85;;;25.20;1.00;;;26.16;45.26;100107.88;5064998;27;129457;-76
2022/08/12 09:21:12;;;;;;;4.90;1.83;;;24.90;1.00;;;26.08;45.96;100106.28;5066765;27;117982;-75
2022/08/12 09:23:41;;;;;;;3.17;1.33;;;25.10;1.00;;;26.46;45.02;100105.72;5064733;27;115031;-80
2022/08/12 09:26:10;;;;;;;4.03;1.60;;;25.40;1.00;;;26.85;44.50;100111.09;5063919;27;130069;-75
2022/08/12 09:28:39;;;;;;;4.97;1.60;;;25.60;1.00;;;26.86;44.50;100103.53;5066150;27;129400;-73
2022/08/12 09:31:08;;;;;;;5.13;2.05;;;25.50;1.00;;;26.78;44.86;100104.78;5044406;27;119040;-74
2022/08/12 09:33:37;;;;;;;2.97;1.60;;;25.50;1.00;;;26.73;44.19;100108.81;5044162;27;114695;-75
2022/08/12 09:36:06;;;;;;;5.68;1.73;;;25.50;1.00;;;27.16;43.43;100102.94;5042891;27;129848;-75
2022/08/12 09:38:38;;;;;;;4.60;1.40;;;25.90;1.00;;;27.49;42.98;100092.31;5043602;27;129544;-79
2022/08/12 09:41:07;;;;;;;3.45;1.50;;;26.00;1.00;;;27.18;43.13;100110.88;5028892;27;118689;-70
2022/08/12 09:46:23;;;;;;;6.27;1.97;;;25.60;1.00;;;26.84;43.75;100092.81;5043401;27;130477;-77
2022/08/12 09:48:51;;;;;;;6.20;1.90;;;25.50;1.00;;;26.83;44.21;100098.78;5043645;27;129455;-76
2022/08/12 09:51:19;;;;;;;3.15;1.58;;;25.50;1.00;;;26.73;44.50;100097.66;5043750;27;119129;-78
2022/08/12 09:53:50;;;;;;;3.33;1.48;;;25.40;1.00;;;27.38;44.31;100088.84;5043828;27;116226;-72
2022/08/12 09:56:22;;;;;;;4.57;1.77;;;26.00;1.00;;;27.71;42.26;100092.09;5043672;27;130484;-74
2022/08/12 09:58:52;;;;;;;3.67;1.73;;;26.10;1.00;;;27.50;42.76;100082.72;5042684;27;130304;-78
2022/08/12 10:01:22;;;;;;;3.75;1.60;;;26.20;1.00;;;27.21;43.23;100082.97;5043305;27;119433;-74
2022/08/12 10:03:50;;;;;;;2.80;1.40;;;25.90;1.00;;;27.33;43.14;100078.94;5043927;27;115037;-74
2022/08/12 10:06:20;;;;;;;3.05;1.40;;;26.10;1.00;;;27.31;42.51;100075.75;5043051;27;130402;-74
2022/08/12 10:08:50;;;;;;;3.53;1.63;;;26.00;1.00;;;27.48;42.61;100074.00;5044841;27;129477;-78
2022/08/12 10:14:05;;;;;;;4.00;2.35;;;26.30;1.00;;;27.50;42.52;100071.56;5043565;27;115207;-75
2022/08/12 10:16:35;;;;;;;5.53;1.88;;;26.10;1.00;;;27.24;42.69;100070.22;5042867;27;130180;-74
2022/08/12 10:19:05;;;;;;;2.90;1.65;;;25.80;1.00;;;27.39;43.14;100059.75;5043105;27;130223;-73
2022/08/12 10:21:36;;;;;;;4.00;1.65;;;26.10;1.00;;;27.61;42.40;100049.97;5043332;27;118780;-73
2022/08/12 10:24:09;;;;;;;3.97;1.70;;;26.20;1.00;;;27.47;42.34;100055.69;5043335;27;115052;-73
2022/08/12 10:29:43;;;;;;;4.53;1.95;;;26.40;1.00;;;27.72;41.88;100055.44;5042662;27;130041;-73
2022/08/12 10:32:20;;;;;;;3.65;1.90;;;26.20;1.00;;;27.72;42.60;100060.19;5043153;27;118842;-73
2022/08/12 10:34:49;;;;;;;4.00;1.50;;;26.40;1.00;;;27.97;42.36;100054.34;5059270;27;114996;-73
2022/08/12 10:37:19;;;;;;;3.40;1.63;;;26.60;1.00;;;27.71;41.92;100047.50;5042875;27;129811;-74
2022/08/12 10:39:50;;;;;;;5.20;1.88;;;26.30;1.00;;;27.82;42.13;100039.78;5042979;27;130038;-71
2022/08/12 10:45:08;;;;;;;;;;;26.50;1.00;;;27.77;42.31;100040.25;5045237;27;115781;-70
2022/08/12 10:47:38;;;;;;;3.67;1.73;;;26.40;1.00;;;28.11;42.53;100047.81;5045422;27;130698;-72
2022/08/12 10:50:09;;;;;;;4.05;1.70;;;26.70;1.00;;;28.25;42.69;100036.47;5042857;27;129611;-73
2022/08/12 10:52:38;;;;;;;3.88;1.52;;;26.90;1.00;;;28.09;41.08;100039.09;5042893;27;118893;-73
2022/08/12 10:55:09;;;;;;;3.88;1.67;;;26.60;1.00;;;28.17;40.96;100028.63;5058612;27;115237;-73
2022/08/12 10:57:38;;;;;;;2.83;1.70;;;26.80;1.00;;;27.85;40.96;100030.59;5042328;27;129902;-73
2022/08/12 11:00:08;;;;;;;3.72;2.00;;;26.50;1.00;;;27.80;42.32;100026.25;5042987;27;129529;-74
2022/08/12 11:02:37;;;;;;;3.97;1.75;;;26.50;1.00;;;27.81;42.44;100024.25;5045252;27;118687;-72
2022/08/12 11:05:06;;;;;;;2.38;1.42;;;26.50;1.00;;;28.16;41.83;100013.88;5046293;27;115190;-75
2022/08/12 11:07:37;;;;;;;4.50;1.80;;;26.80;1.00;;;28.62;42.46;100015.22;5044410;27;130674;-74
2022/08/12 11:10:08;;;;;;;3.97;2.13;;;27.20;1.00;;;28.88;39.70;100021.19;5041471;27;129604;-76
2022/08/12 11:12:41;;;;;;;6.13;2.00;;;27.30;1.00;;;28.84;40.15;100020.47;5042735;27;119357;-75
2022/08/12 11:15:11;;;;;;;4.50;1.92;;;27.20;1.00;;;28.67;40.61;100023.13;5042737;27;115585;-74
2022/08/12 11:17:40;;;;;;;5.50;2.00;;;27.20;1.00;;;28.64;40.69;100023.97;5042597;27;130072;-74
2022/08/12 11:20:10;;;;;;;3.35;1.60;;;27.20;1.00;;;28.68;39.84;100012.75;5042265;27;129724;-74
2022/08/12 11:22:38;;;;;;;4.80;1.63;;;27.10;1.00;;;28.38;40.02;100027.53;5042674;27;120230;-73
2022/08/12 11:25:10;;;;;;;4.20;1.75;;;26.70;1.00;;;28.50;40.18;100018.56;5042577;27;115541;-72
2022/08/12 11:27:39;;;;;;;4.18;1.80;;;26.90;1.00;;;28.59;40.90;100013.25;5057314;27;129880;-73
2022/08/12 11:30:10;;;;;;;5.07;1.90;;;26.90;1.00;;;28.59;40.83;100009.69;5042023;27;129669;-73
2022/08/12 11:32:38;;;;;;;6.88;2.10;;;27.00;1.00;;;28.62;40.38;100009.63;5044351;27;118930;-75
2022/08/12 11:35:08;;;;;;;5.47;2.03;;;27.00;1.00;;;28.78;39.97;100010.97;5042564;27;115939;-72
2022/08/12 11:37:38;;;;;;;4.45;1.67;;;27.10;1.00;;;28.65;40.11;100014.38;5041994;27;130212;-73
2022/08/12 11:40:09;;;;;;;2.70;1.67;;;27.10;1.00;;;28.35;39.85;100018.00;5041633;27;129934;-74
2022/08/12 11:42:38;;;;;;;3.30;1.85;;;26.90;1.00;;;28.09;41.24;100011.97;5044121;27;118920;-73
2022/08/12 11:45:08;;;;;;;2.78;1.60;;;26.70;1.00;;;28.08;40.80;100004.81;5057750;27;115077;-74
2022/08/12 11:47:37;;;;;;;4.32;1.90;;;26.60;1.00;;;28.39;39.72;100007.59;5041382;27;130260;-75
2022/08/12 11:50:07;;;;;;;3.92;1.50;;;27.00;1.00;;;28.76;39.57;100002.25;5042033;27;129595;-76
2022/08/12 11:52:36;;;;;;;4.97;1.90;;;27.20;1.00;;;28.46;39.92;100006.69;5041967;27;118880;-75
2022/08/12 11:55:05;;;;;;;4.65;1.50;;;27.00;1.00;;;28.62;41.08;99992.88;5040995;27;115425;-76
2022/08/12 11:57:51;;;;;;;6.22;1.98;;;27.10;1.00;;;28.88;39.42;99998.84;5039957;27;130422;-76
2022/08/12 12:00:20;;;;;;;6.32;2.03;;;27.30;1.00;;;28.96;39.19;99993.94;5041751;27;130641;-72
2022/08/12 12:02:49;;;;;;;4.15;1.60;;;27.50;1.00;;;29.08;38.87;99995.31;5041904;27;118741;-74
2022/08/12 12:05:19;;;;;;;4.95;1.65;;;27.50;1.00;;;29.05;38.45;99992.16;5041704;27;115659;-74